KGLD/GLD METAR and TAF weather

Enter ICAO airport designator
Station Type Date Time Source
KGLD METAR 2019/12/14 10:53 UTC NOAA

KGLD 141053Z AUTO 22005KT 10SM SCT120 M04/M06 A2985 RMK AO2 SLP120 T10441056


Station Type Date Time Source
KGLD Decoded METAR 2019/12/14 10:53 UTC NOAA

GOODLAND RENNER FIELD, KS, United States (KGLD) 39-22N 101-42W 1114M
Dec 14, 2019 - 05:53 AM EST / 2019.12.14 1053 UTC
Wind: from the SW (220 degrees) at 6 MPH (5 KT):0
Visibility: 10 mile(s):0
Sky conditions: partly cloudy
Temperature: 24.1 F (-4.4 C)
Windchill: 17 F (-8 C):1
Dew Point: 21.9 F (-5.6 C)
Relative Humidity: 91%
Pressure (altimeter): 29.85 in. Hg (1010 hPa)
ob: KGLD 141053Z AUTO 22005KT 10SM SCT120 M04/M06 A2985 RMK AO2 SLP120 T10441056
cycle: 11

Station Type Date Time Source
KGLD TAF 2019/12/14 12:22 UTC NOAA

TAF KGLD 141120Z 1412/1512 VRB06KT P6SM BKN120
FM141600 17012KT P6SM BKN080
FM141900 17017KT P6SM SCT030 BKN180
FM150200 12012KT P6SM SCT015 SCT100
FM150600 12015KT P6SM OVC010

Example: see airport list